sensor_id;sensor_type;location;lat;lon;timestamp;temperature;humidity
17845;DHT22;9047;53.486;10.218;2024-01-07T00:01:23;-0.40;99.90
17845;DHT22;9047;53.486;10.218;2024-01-07T00:03:51;-0.40;99.90
17845;DHT22;9047;53.486;10.218;2024-01-07T00:06:18;-0.40;99.90
17845;DHT22;9047;53.486;10.218;2024-01-07T00:08:47;-0.50;99.90
17845;DHT22;9047;53.486;10.218;2024-01-07T00:11:14;-0.50;99.90
17845;DHT22;9047;53.486;10.218;2024-01-07T00:13:41;-0.60;99.90
17845;DHT22;9047;53.486;10.218;2024-01-07T00:16:10;-0.50;99.90
17845;DHT22;9047;53.486;10.218;2024-01-07T00:18:37;-0.60;99.90
17845;DHT22;9047;53.486;10.218;2024-01-07T00:21:05;-0.60;99.90
17845;DHT22;9047;53.486;10.218;2024-01-07T00:23:32;-0.60;99.90
17845;DHT22;9047;53.486;10.218;2024-01-07T00:26:01;-0.70;99.90
17845;DHT22;9047;53.486;10.218;2024-01-07T00:28:29;-0.70;99.90
17845;DHT22;9047;53.486;10.218;2024-01-07T00:30:56;-0.70;99.90
17845;DHT22;9047;53.486;10.218;2024-01-07T00:33:24;-0.70;99.90
17845;DHT22;9047;53.486;10.218;2024-01-07T00:35:51;-0.80;99.90
17845;DHT22;9047;53.486;10.218;2024-01-07T00:38:18;-0.80;99.90
17845;DHT22;9047;53.486;10.218;2024-01-07T00:40:45;-0.80;99.90
17845;DHT22;9047;53.486;10.218;2024-01-07T00:43:14;-0.90;99.90
17845;DHT22;9047;53.486;10.218;2024-01-07T00:45:41;-0.80;99.90
17845;DHT22;9047;53.486;10.218;2024-01-07T00:48:08;-0.90;99.90
17845;DHT22;9047;53.486;10.218;2024-01-07T00:50:35;-0.90;99.90
17845;DHT22;9047;53.486;10.218;2024-01-07T00:53:02;-0.90;99.90
17845;DHT22;9047;53.486;10.218;2024-01-07T00:55:31;-0.90;99.90
17845;DHT22;9047;53.486;10.218;2024-01-07T00:57:58;-0.90;99.90
17845;DHT22;9047;53.486;10.218;2024-01-07T01:00:27;-0.90;99.90
17845;DHT22;9047;53.486;10.218;2024-01-07T01:02:56;-1.00;99.90
17845;DHT22;9047;53.486;10.218;2024-01-07T01:05:25;-1.00;99.90
17845;DHT22;9047;53.486;10.218;2024-01-07T01:07:51;-1.10;99.90
17845;DHT22;9047;53.486;10.218;2024-01-07T01:10:18;-1.10;99.90
17845;DHT22;9047;53.486;10.218;2024-01-07T01:12:45;-1.10;99.90
17845;DHT22;9047;53.486;10.218;2024-01-07T01:15:12;-1.20;99.90
17845;DHT22;9047;53.486;10.218;2024-01-07T01:17:43;-1.20;99.90
17845;DHT22;9047;53.486;10.218;2024-01-07T01:20:11;-1.30;99.90
17845;DHT22;9047;53.486;10.218;2024-01-07T01:22:37;-1.40;99.90
17845;DHT22;9047;53.486;10.218;2024-01-07T01:25:06;-1.40;99.90
17845;DHT22;9047;53.486;10.218;2024-01-07T01:27:33;-1.50;99.90
17845;DHT22;9047;53.486;10.218;2024-01-07T01:30:00;-1.50;99.90
17845;DHT22;9047;53.486;10.218;2024-01-07T01:32:30;-1.50;99.90
17845;DHT22;9047;53.486;10.218;2024-01-07T01:34:58;-1.50;99.90
17845;DHT22;9047;53.486;10.218;2024-01-07T01:37:25;-1.50;99.90
17845;DHT22;9047;53.486;10.218;2024-01-07T01:39:52;-1.50;99.90
17845;DHT22;9047;53.486;10.218;2024-01-07T01:42:18;-1.60;99.90
17845;DHT22;9047;53.486;10.218;2024-01-07T01:44:46;-1.60;99.90
17845;DHT22;9047;53.486;10.218;2024-01-07T01:47:13;-1.60;99.90
17845;DHT22;9047;53.486;10.218;2024-01-07T01:49:40;-1.60;99.90
17845;DHT22;9047;53.486;10.218;2024-01-07T01:52:10;-1.60;99.90
17845;DHT22;9047;53.486;10.218;2024-01-07T01:54:37;-1.60;99.90
17845;DHT22;9047;53.486;10.218;2024-01-07T01:57:08;-1.60;99.90
17845;DHT22;9047;53.486;10.218;2024-01-07T01:59:36;-1.50;99.90
17845;DHT22;9047;53.486;10.218;2024-01-07T02:02:03;-1.50;99.90
17845;DHT22;9047;53.486;10.218;2024-01-07T02:04:33;-1.40;99.90
17845;DHT22;9047;53.486;10.218;2024-01-07T02:07:00;-1.50;99.90
17845;DHT22;9047;53.486;10.218;2024-01-07T02:09:36;-1.50;99.90
17845;DHT22;9047;53.486;10.218;2024-01-07T02:15:25;-1.40;99.90
17845;DHT22;9047;53.486;10.218;2024-01-07T02:17:52;-1.40;99.90
17845;DHT22;9047;53.486;10.218;2024-01-07T02:20:20;-1.40;99.90
17845;DHT22;9047;53.486;10.218;2024-01-07T02:22:47;-1.40;99.90
17845;DHT22;9047;53.486;10.218;2024-01-07T02:25:15;-1.40;99.90
17845;DHT22;9047;53.486;10.218;2024-01-07T02:27:42;-1.40;99.90
17845;DHT22;9047;53.486;10.218;2024-01-07T02:30:10;-1.50;99.90
17845;DHT22;9047;53.486;10.218;2024-01-07T02:32:37;-1.50;99.90
17845;DHT22;9047;53.486;10.218;2024-01-07T02:35:05;-1.50;99.90
17845;DHT22;9047;53.486;10.218;2024-01-07T02:37:32;-1.50;99.90
17845;DHT22;9047;53.486;10.218;2024-01-07T02:39:59;-1.60;99.90
17845;DHT22;9047;53.486;10.218;2024-01-07T02:42:27;-1.50;99.90
17845;DHT22;9047;53.486;10.218;2024-01-07T02:44:54;-1.50;99.90
17845;DHT22;9047;53.486;10.218;2024-01-07T02:47:21;-1.50;99.90
17845;DHT22;9047;53.486;10.218;2024-01-07T02:49:48;-1.50;99.90
17845;DHT22;9047;53.486;10.218;2024-01-07T02:52:14;-1.50;99.90
17845;DHT22;9047;53.486;10.218;2024-01-07T02:54:41;-1.60;99.90
17845;DHT22;9047;53.486;10.218;2024-01-07T02:57:07;-1.50;99.90
17845;DHT22;9047;53.486;10.218;2024-01-07T02:59:35;-1.50;99.90
17845;DHT22;9047;53.486;10.218;2024-01-07T03:02:03;-1.50;99.90
17845;DHT22;9047;53.486;10.218;2024-01-07T03:04:30;-1.50;99.90
17845;DHT22;9047;53.486;10.218;2024-01-07T03:06:57;-1.40;99.90
17845;DHT22;9047;53.486;10.218;2024-01-07T03:09:24;-1.40;99.90
17845;DHT22;9047;53.486;10.218;2024-01-07T03:11:51;-1.30;99.90
17845;DHT22;9047;53.486;10.218;2024-01-07T03:14:19;-1.30;99.90
17845;DHT22;9047;53.486;10.218;2024-01-07T03:16:49;-1.20;99.90
17845;DHT22;9047;53.486;10.218;2024-01-07T03:19:16;-1.20;99.90
17845;DHT22;9047;53.486;10.218;2024-01-07T03:21:43;-1.20;99.90
17845;DHT22;9047;53.486;10.218;2024-01-07T03:24:10;-1.20;99.90
17845;DHT22;9047;53.486;10.218;2024-01-07T03:26:37;-1.20;99.90
17845;DHT22;9047;53.486;10.218;2024-01-07T03:29:04;-1.10;99.90
17845;DHT22;9047;53.486;10.218;2024-01-07T03:31:32;-1.00;99.90
17845;DHT22;9047;53.486;10.218;2024-01-07T03:34:00;-1.00;99.90
17845;DHT22;9047;53.486;10.218;2024-01-07T03:36:27;-1.00;99.90
17845;DHT22;9047;53.486;10.218;2024-01-07T03:38:57;-1.00;99.90
17845;DHT22;9047;53.486;10.218;2024-01-07T03:41:24;-1.00;99.90
17845;DHT22;9047;53.486;10.218;2024-01-07T03:43:51;-1.00;99.90
17845;DHT22;9047;53.486;10.218;2024-01-07T03:46:18;-1.00;99.90
17845;DHT22;9047;53.486;10.218;2024-01-07T03:48:45;-1.00;99.90
17845;DHT22;9047;53.486;10.218;2024-01-07T03:51:14;-0.90;99.90
17845;DHT22;9047;53.486;10.218;2024-01-07T03:53:41;-1.00;99.90
17845;DHT22;9047;53.486;10.218;2024-01-07T03:56:10;-0.90;99.90
17845;DHT22;9047;53.486;10.218;2024-01-07T03:58:37;-0.90;99.90
17845;DHT22;9047;53.486;10.218;2024-01-07T04:01:05;-1.00;99.90
17845;DHT22;9047;53.486;10.218;2024-01-07T04:03:32;-1.00;99.90
17845;DHT22;9047;53.486;10.218;2024-01-07T04:05:59;-0.90;99.90
17845;DHT22;9047;53.486;10.218;2024-01-07T04:08:27;-0.90;99.90
17845;DHT22;9047;53.486;10.218;2024-01-07T04:10:55;-0.90;99.90
17845;DHT22;9047;53.486;10.218;2024-01-07T04:13:21;-0.80;99.90
17845;DHT22;9047;53.486;10.218;2024-01-07T04:15:48;-0.80;99.90
17845;DHT22;9047;53.486;10.218;2024-01-07T04:18:15;-0.90;99.90
17845;DHT22;9047;53.486;10.218;2024-01-07T04:20:42;-0.80;99.90
17845;DHT22;9047;53.486;10.218;2024-01-07T04:23:10;-0.90;99.90
17845;DHT22;9047;53.486;10.218;2024-01-07T04:25:38;-0.90;99.90
17845;DHT22;9047;53.486;10.218;2024-01-07T04:28:09;-0.80;99.90
17845;DHT22;9047;53.486;10.218;2024-01-07T04:30:38;-0.80;99.90
17845;DHT22;9047;53.486;10.218;2024-01-07T04:33:05;-0.80;99.90
17845;DHT22;9047;53.486;10.218;2024-01-07T04:35:32;-0.80;99.90
17845;DHT22;9047;53.486;10.218;2024-01-07T04:38:02;-0.70;99.90
17845;DHT22;9047;53.486;10.218;2024-01-07T04:40:28;-0.70;99.90
17845;DHT22;9047;53.486;10.218;2024-01-07T04:42:57;-0.70;99.90
17845;DHT22;9047;53.486;10.218;2024-01-07T04:45:23;-0.70;99.90
17845;DHT22;9047;53.486;10.218;2024-01-07T04:47:52;-0.70;99.90
17845;DHT22;9047;53.486;10.218;2024-01-07T04:50:20;-0.70;99.90
17845;DHT22;9047;53.486;10.218;2024-01-07T04:52:47;-0.70;99.90
17845;DHT22;9047;53.486;10.218;2024-01-07T04:55:14;-0.70;99.90
17845;DHT22;9047;53.486;10.218;2024-01-07T04:57:40;-0.70;99.90
17845;DHT22;9047;53.486;10.218;2024-01-07T05:00:14;-0.70;99.90
17845;DHT22;9047;53.486;10.218;2024-01-07T05:02:42;-0.70;99.90
17845;DHT22;9047;53.486;10.218;2024-01-07T05:05:11;-0.70;99.90
17845;DHT22;9047;53.486;10.218;2024-01-07T05:07:38;-0.70;99.90
17845;DHT22;9047;53.486;10.218;2024-01-07T05:10:08;-0.70;99.90
17845;DHT22;9047;53.486;10.218;2024-01-07T05:12:37;-0.60;99.90
17845;DHT22;9047;53.486;10.218;2024-01-07T05:15:05;-0.60;99.90
17845;DHT22;9047;53.486;10.218;2024-01-07T05:17:36;-0.60;99.90
17845;DHT22;9047;53.486;10.218;2024-01-07T05:20:03;-0.60;99.90
17845;DHT22;9047;53.486;10.218;2024-01-07T05:22:32;-0.60;99.90
17845;DHT22;9047;53.486;10.218;2024-01-07T05:24:59;-0.60;99.90
17845;DHT22;9047;53.486;10.218;2024-01-07T05:27:26;-0.60;99.90
17845;DHT22;9047;53.486;10.218;2024-01-07T05:29:53;-0.50;99.90
17845;DHT22;9047;53.486;10.218;2024-01-07T05:32:21;-0.50;99.90
17845;DHT22;9047;53.486;10.218;2024-01-07T05:34:49;-0.50;99.90
17845;DHT22;9047;53.486;10.218;2024-01-07T05:37:16;-0.50;99.90
17845;DHT22;9047;53.486;10.218;2024-01-07T05:39:43;-0.50;99.90
17845;DHT22;9047;53.486;10.218;2024-01-07T05:42:13;-0.40;99.90
17845;DHT22;9047;53.486;10.218;2024-01-07T05:44:42;-0.40;99.90
17845;DHT22;9047;53.486;10.218;2024-01-07T05:47:08;-0.40;99.90
17845;DHT22;9047;53.486;10.218;2024-01-07T05:49:38;-0.40;99.90
17845;DHT22;9047;53.486;10.218;2024-01-07T05:52:08;-0.40;99.90
17845;DHT22;9047;53.486;10.218;2024-01-07T05:54:37;-0.40;99.90
17845;DHT22;9047;53.486;10.218;2024-01-07T05:57:11;-0.40;99.90
17845;DHT22;9047;53.486;10.218;2024-01-07T05:59:38;-0.40;99.90
17845;DHT22;9047;53.486;10.218;2024-01-07T06:02:07;-0.40;99.90
17845;DHT22;9047;53.486;10.218;2024-01-07T06:04:34;-0.40;99.90
17845;DHT22;9047;53.486;10.218;2024-01-07T06:07:02;-0.40;99.90
17845;DHT22;9047;53.486;10.218;2024-01-07T06:09:31;-0.40;99.90
17845;DHT22;9047;53.486;10.218;2024-01-07T06:12:00;-0.40;99.90
17845;DHT22;9047;53.486;10.218;2024-01-07T06:14:27;-0.40;99.90
17845;DHT22;9047;53.486;10.218;2024-01-07T06:16:54;-0.40;99.90
17845;DHT22;9047;53.486;10.218;2024-01-07T06:19:21;-0.40;99.90
17845;DHT22;9047;53.486;10.218;2024-01-07T06:21:48;-0.40;99.90
17845;DHT22;9047;53.486;10.218;2024-01-07T06:24:15;-0.40;99.90
17845;DHT22;9047;53.486;10.218;2024-01-07T06:26:44;-0.40;99.90
17845;DHT22;9047;53.486;10.218;2024-01-07T06:29:12;-0.40;99.90
17845;DHT22;9047;53.486;10.218;2024-01-07T06:31:43;-0.40;99.90
17845;DHT22;9047;53.486;10.218;2024-01-07T06:34:12;-0.40;99.90
17845;DHT22;9047;53.486;10.218;2024-01-07T06:36:40;-0.40;99.90
17845;DHT22;9047;53.486;10.218;2024-01-07T06:39:07;-0.40;99.90
17845;DHT22;9047;53.486;10.218;2024-01-07T06:41:34;-0.40;99.90
17845;DHT22;9047;53.486;10.218;2024-01-07T06:44:03;-0.40;99.90
17845;DHT22;9047;53.486;10.218;2024-01-07T06:46:30;-0.40;99.90
17845;DHT22;9047;53.486;10.218;2024-01-07T06:48:56;-0.40;99.90
17845;DHT22;9047;53.486;10.218;2024-01-07T06:51:25;-0.40;99.90
17845;DHT22;9047;53.486;10.218;2024-01-07T06:53:52;-0.40;99.90
17845;DHT22;9047;53.486;10.218;2024-01-07T06:56:18;-0.40;99.90
17845;DHT22;9047;53.486;10.218;2024-01-07T06:58:45;-0.40;99.90
17845;DHT22;9047;53.486;10.218;2024-01-07T07:01:19;-0.40;99.90
17845;DHT22;9047;53.486;10.218;2024-01-07T07:03:46;-0.40;99.90
17845;DHT22;9047;53.486;10.218;2024-01-07T07:06:13;-0.40;99.90
17845;DHT22;9047;53.486;10.218;2024-01-07T07:08:43;-0.40;99.90
17845;DHT22;9047;53.486;10.218;2024-01-07T07:11:10;-0.30;99.90
17845;DHT22;9047;53.486;10.218;2024-01-07T07:13:37;-0.30;99.90
17845;DHT22;9047;53.486;10.218;2024-01-07T07:16:05;-0.30;99.90
17845;DHT22;9047;53.486;10.218;2024-01-07T07:18:43;-0.20;99.90
17845;DHT22;9047;53.486;10.218;2024-01-07T07:21:11;-0.20;99.90
17845;DHT22;9047;53.486;10.218;2024-01-07T07:23:38;-0.20;99.90
17845;DHT22;9047;53.486;10.218;2024-01-07T07:26:04;-0.20;99.90
17845;DHT22;9047;53.486;10.218;2024-01-07T07:28:32;-0.20;99.90
17845;DHT22;9047;53.486;10.218;2024-01-07T07:30:59;-0.20;99.90
17845;DHT22;9047;53.486;10.218;2024-01-07T07:33:26;-0.20;99.90
17845;DHT22;9047;53.486;10.218;2024-01-07T07:35:54;-0.20;99.90
17845;DHT22;9047;53.486;10.218;2024-01-07T07:38:21;-0.30;99.90
17845;DHT22;9047;53.486;10.218;2024-01-07T07:40:49;-0.30;99.90
17845;DHT22;9047;53.486;10.218;2024-01-07T07:43:18;-0.40;99.90
17845;DHT22;9047;53.486;10.218;2024-01-07T07:45:45;-0.50;99.90
17845;DHT22;9047;53.486;10.218;2024-01-07T07:48:15;-0.60;99.90
17845;DHT22;9047;53.486;10.218;2024-01-07T07:50:42;-0.70;99.90
17845;DHT22;9047;53.486;10.218;2024-01-07T07:53:10;-0.80;99.90
17845;DHT22;9047;53.486;10.218;2024-01-07T07:55:38;-0.90;99.90
17845;DHT22;9047;53.486;10.218;2024-01-07T07:58:05;-1.00;99.90
17845;DHT22;9047;53.486;10.218;2024-01-07T08:00:32;-1.00;99.90
17845;DHT22;9047;53.486;10.218;2024-01-07T08:02:59;-1.10;99.90
17845;DHT22;9047;53.486;10.218;2024-01-07T08:05:26;-1.10;99.90
17845;DHT22;9047;53.486;10.218;2024-01-07T08:07:54;-1.20;99.90
17845;DHT22;9047;53.486;10.218;2024-01-07T08:10:24;-1.20;99.90
17845;DHT22;9047;53.486;10.218;2024-01-07T08:12:52;-1.30;99.90
17845;DHT22;9047;53.486;10.218;2024-01-07T08:15:22;-1.30;99.90
17845;DHT22;9047;53.486;10.218;2024-01-07T08:17:49;-1.30;99.90
17845;DHT22;9047;53.486;10.218;2024-01-07T08:20:17;-1.30;99.90
17845;DHT22;9047;53.486;10.218;2024-01-07T08:22:46;-1.30;99.90
17845;DHT22;9047;53.486;10.218;2024-01-07T08:25:13;-1.30;99.90
17845;DHT22;9047;53.486;10.218;2024-01-07T08:27:42;-1.30;99.90
17845;DHT22;9047;53.486;10.218;2024-01-07T08:30:10;-1.20;99.90
17845;DHT22;9047;53.486;10.218;2024-01-07T08:32:37;-1.20;99.90
17845;DHT22;9047;53.486;10.218;2024-01-07T08:35:06;-1.20;99.90
17845;DHT22;9047;53.486;10.218;2024-01-07T08:37:34;-1.20;99.90
17845;DHT22;9047;53.486;10.218;2024-01-07T08:40:03;-1.20;99.90
17845;DHT22;9047;53.486;10.218;2024-01-07T08:42:31;-1.10;99.90
17845;DHT22;9047;53.486;10.218;2024-01-07T08:45:00;-1.00;99.90
17845;DHT22;9047;53.486;10.218;2024-01-07T08:47:30;-1.00;99.90
17845;DHT22;9047;53.486;10.218;2024-01-07T08:49:58;-0.90;99.90
17845;DHT22;9047;53.486;10.218;2024-01-07T08:52:25;-0.90;99.90
17845;DHT22;9047;53.486;10.218;2024-01-07T08:54:52;-0.80;99.90
17845;DHT22;9047;53.486;10.218;2024-01-07T08:57:19;-0.80;99.90
17845;DHT22;9047;53.486;10.218;2024-01-07T08:59:46;-0.80;99.90
17845;DHT22;9047;53.486;10.218;2024-01-07T09:02:15;-0.70;99.90
17845;DHT22;9047;53.486;10.218;2024-01-07T09:04:42;-0.70;99.90
17845;DHT22;9047;53.486;10.218;2024-01-07T09:07:09;-0.60;99.90
17845;DHT22;9047;53.486;10.218;2024-01-07T09:09:36;-0.60;99.90
17845;DHT22;9047;53.486;10.218;2024-01-07T09:12:06;-0.60;99.90
17845;DHT22;9047;53.486;10.218;2024-01-07T09:14:33;-0.50;99.90
17845;DHT22;9047;53.486;10.218;2024-01-07T09:17:00;-0.50;99.90
17845;DHT22;9047;53.486;10.218;2024-01-07T09:19:32;-0.50;99.90
17845;DHT22;9047;53.486;10.218;2024-01-07T09:21:59;-0.40;99.90
17845;DHT22;9047;53.486;10.218;2024-01-07T09:24:27;-0.40;99.90
17845;DHT22;9047;53.486;10.218;2024-01-07T09:26:57;-0.30;99.90
17845;DHT22;9047;53.486;10.218;2024-01-07T09:29:25;-0.30;99.90
17845;DHT22;9047;53.486;10.218;2024-01-07T09:31:53;-0.30;99.90
17845;DHT22;9047;53.486;10.218;2024-01-07T09:34:20;-0.20;99.90
17845;DHT22;9047;53.486;10.218;2024-01-07T09:36:50;-0.20;99.90
17845;DHT22;9047;53.486;10.218;2024-01-07T09:39:17;-0.20;99.90
17845;DHT22;9047;53.486;10.218;2024-01-07T09:41:43;-0.10;99.90
17845;DHT22;9047;53.486;10.218;2024-01-07T09:44:11;-0.10;99.90
17845;DHT22;9047;53.486;10.218;2024-01-07T09:46:39;0.00;99.90
17845;DHT22;9047;53.486;10.218;2024-01-07T09:49:07;0.00;99.90
17845;DHT22;9047;53.486;10.218;2024-01-07T09:51:35;0.00;99.90
17845;DHT22;9047;53.486;10.218;2024-01-07T09:54:08;0.10;99.90
17845;DHT22;9047;53.486;10.218;2024-01-07T09:56:43;0.10;99.90
17845;DHT22;9047;53.486;10.218;2024-01-07T09:59:11;0.20;99.90
17845;DHT22;9047;53.486;10.218;2024-01-07T10:01:40;0.20;99.90
17845;DHT22;9047;53.486;10.218;2024-01-07T10:04:08;0.30;99.90
17845;DHT22;9047;53.486;10.218;2024-01-07T10:06:36;0.30;99.90
17845;DHT22;9047;53.486;10.218;2024-01-07T10:09:05;0.30;99.90
17845;DHT22;9047;53.486;10.218;2024-01-07T10:11:33;0.40;99.90
17845;DHT22;9047;53.486;10.218;2024-01-07T10:14:03;0.50;99.90
17845;DHT22;9047;53.486;10.218;2024-01-07T10:16:31;0.50;99.90
17845;DHT22;9047;53.486;10.218;2024-01-07T10:18:58;0.60;99.90
17845;DHT22;9047;53.486;10.218;2024-01-07T10:21:26;0.70;99.90
17845;DHT22;9047;53.486;10.218;2024-01-07T10:24:09;0.80;99.90
17845;DHT22;9047;53.486;10.218;2024-01-07T10:26:44;0.90;99.90
17845;DHT22;9047;53.486;10.218;2024-01-07T10:29:11;1.20;99.90
17845;DHT22;9047;53.486;10.218;2024-01-07T10:31:42;1.40;99.90
17845;DHT22;9047;53.486;10.218;2024-01-07T10:34:10;1.70;99.90
17845;DHT22;9047;53.486;10.218;2024-01-07T10:36:39;1.90;99.90
17845;DHT22;9047;53.486;10.218;2024-01-07T10:39:07;2.10;99.90
17845;DHT22;9047;53.486;10.218;2024-01-07T10:41:37;2.30;99.90
17845;DHT22;9047;53.486;10.218;2024-01-07T10:44:04;2.50;99.90
17845;DHT22;9047;53.486;10.218;2024-01-07T10:46:33;2.50;99.90
17845;DHT22;9047;53.486;10.218;2024-01-07T10:49:09;2.50;99.90
17845;DHT22;9047;53.486;10.218;2024-01-07T10:51:39;2.40;99.90
17845;DHT22;9047;53.486;10.218;2024-01-07T10:54:07;2.30;99.90
17845;DHT22;9047;53.486;10.218;2024-01-07T10:56:43;2.30;99.90
17845;DHT22;9047;53.486;10.218;2024-01-07T10:59:11;2.20;99.90
17845;DHT22;9047;53.486;10.218;2024-01-07T11:01:39;2.10;99.90
17845;DHT22;9047;53.486;10.218;2024-01-07T11:04:13;2.10;99.90
17845;DHT22;9047;53.486;10.218;2024-01-07T11:06:46;2.10;99.90
17845;DHT22;9047;53.486;10.218;2024-01-07T11:09:23;2.10;99.90
17845;DHT22;9047;53.486;10.218;2024-01-07T11:11:52;2.00;99.90
17845;DHT22;9047;53.486;10.218;2024-01-07T11:14:34;2.00;99.90
17845;DHT22;9047;53.486;10.218;2024-01-07T11:17:02;2.10;99.90
17845;DHT22;9047;53.486;10.218;2024-01-07T11:19:29;2.20;99.90
17845;DHT22;9047;53.486;10.218;2024-01-07T11:22:21;2.30;99.90
17845;DHT22;9047;53.486;10.218;2024-01-07T11:24:50;2.50;99.90
17845;DHT22;9047;53.486;10.218;2024-01-07T11:27:19;2.60;99.90
17845;DHT22;9047;53.486;10.218;2024-01-07T11:29:53;2.80;99.90
17845;DHT22;9047;53.486;10.218;2024-01-07T11:32:23;2.90;99.90
17845;DHT22;9047;53.486;10.218;2024-01-07T11:35:01;2.90;99.90
17845;DHT22;9047;53.486;10.218;2024-01-07T11:37:31;2.90;99.90
17845;DHT22;9047;53.486;10.218;2024-01-07T11:39:59;2.70;99.90
17845;DHT22;9047;53.486;10.218;2024-01-07T11:42:37;2.50;99.90
17845;DHT22;9047;53.486;10.218;2024-01-07T11:45:05;2.30;99.90
17845;DHT22;9047;53.486;10.218;2024-01-07T11:47:37;2.20;99.90
17845;DHT22;9047;53.486;10.218;2024-01-07T11:50:06;2.00;99.90
17845;DHT22;9047;53.486;10.218;2024-01-07T11:52:34;1.90;99.90
17845;DHT22;9047;53.486;10.218;2024-01-07T11:55:05;1.70;99.90
17845;DHT22;9047;53.486;10.218;2024-01-07T11:57:33;1.60;99.90
17845;DHT22;9047;53.486;10.218;2024-01-07T12:00:01;1.50;99.90
17845;DHT22;9047;53.486;10.218;2024-01-07T12:02:31;1.40;99.90
17845;DHT22;9047;53.486;10.218;2024-01-07T12:04:58;1.40;99.90
17845;DHT22;9047;53.486;10.218;2024-01-07T12:07:25;1.30;99.90
17845;DHT22;9047;53.486;10.218;2024-01-07T12:09:57;1.20;99.90
17845;DHT22;9047;53.486;10.218;2024-01-07T12:12:27;1.20;99.90
17845;DHT22;9047;53.486;10.218;2024-01-07T12:14:58;1.30;99.90
17845;DHT22;9047;53.486;10.218;2024-01-07T12:17:29;1.10;99.90
17845;DHT22;9047;53.486;10.218;2024-01-07T12:23:25;1.00;99.90
17845;DHT22;9047;53.486;10.218;2024-01-07T12:26:36;0.90;99.90
17845;DHT22;9047;53.486;10.218;2024-01-07T12:29:33;0.80;99.90
17845;DHT22;9047;53.486;10.218;2024-01-07T12:32:22;0.70;99.90
17845;DHT22;9047;53.486;10.218;2024-01-07T12:35:09;0.50;99.90
17845;DHT22;9047;53.486;10.218;2024-01-07T12:37:52;0.40;99.90
17845;DHT22;9047;53.486;10.218;2024-01-07T12:40:19;0.20;99.90
17845;DHT22;9047;53.486;10.218;2024-01-07T12:43:01;0.20;99.90
17845;DHT22;9047;53.486;10.218;2024-01-07T12:45:34;0.10;99.90
17845;DHT22;9047;53.486;10.218;2024-01-07T12:48:17;0.20;99.90
17845;DHT22;9047;53.486;10.218;2024-01-07T12:50:45;0.20;99.90
17845;DHT22;9047;53.486;10.218;2024-01-07T12:53:11;0.30;99.90
17845;DHT22;9047;53.486;10.218;2024-01-07T12:55:41;0.40;99.90
17845;DHT22;9047;53.486;10.218;2024-01-07T12:58:08;0.40;99.90
17845;DHT22;9047;53.486;10.218;2024-01-07T13:00:35;0.50;99.90
17845;DHT22;9047;53.486;10.218;2024-01-07T13:03:02;0.60;99.90
17845;DHT22;9047;53.486;10.218;2024-01-07T13:05:56;0.80;99.90
17845;DHT22;9047;53.486;10.218;2024-01-07T13:08:43;0.90;99.90
17845;DHT22;9047;53.486;10.218;2024-01-07T13:11:27;1.10;99.90
17845;DHT22;9047;53.486;10.218;2024-01-07T13:13:57;1.00;99.90
17845;DHT22;9047;53.486;10.218;2024-01-07T13:19:35;0.80;99.90
17845;DHT22;9047;53.486;10.218;2024-01-07T13:22:43;0.70;99.90
17845;DHT22;9047;53.486;10.218;2024-01-07T13:25:12;0.50;99.90
17845;DHT22;9047;53.486;10.218;2024-01-07T13:27:54;0.50;99.90
17845;DHT22;9047;53.486;10.218;2024-01-07T13:30:39;0.50;99.90
17845;DHT22;9047;53.486;10.218;2024-01-07T13:33:30;0.40;99.90
17845;DHT22;9047;53.486;10.218;2024-01-07T13:36:04;0.40;99.90
17845;DHT22;9047;53.486;10.218;2024-01-07T13:49:48;0.20;99.90
17845;DHT22;9047;53.486;10.218;2024-01-07T13:52:19;0.10;99.90
17845;DHT22;9047;53.486;10.218;2024-01-07T13:54:48;0.00;99.90
17845;DHT22;9047;53.486;10.218;2024-01-07T13:57:16;-0.10;99.90
17845;DHT22;9047;53.486;10.218;2024-01-07T13:59:50;-0.10;99.90
17845;DHT22;9047;53.486;10.218;2024-01-07T14:02:18;-0.10;99.90
17845;DHT22;9047;53.486;10.218;2024-01-07T14:04:51;-0.20;99.90
17845;DHT22;9047;53.486;10.218;2024-01-07T14:07:21;-0.20;99.90
17845;DHT22;9047;53.486;10.218;2024-01-07T14:09:50;-0.30;99.90
17845;DHT22;9047;53.486;10.218;2024-01-07T14:15:14;-0.50;99.90
17845;DHT22;9047;53.486;10.218;2024-01-07T14:17:47;-0.60;99.90
17845;DHT22;9047;53.486;10.218;2024-01-07T14:20:20;-0.60;99.90
17845;DHT22;9047;53.486;10.218;2024-01-07T14:22:47;-0.70;99.90
17845;DHT22;9047;53.486;10.218;2024-01-07T14:25:14;-0.80;99.90
17845;DHT22;9047;53.486;10.218;2024-01-07T14:27:42;-0.90;99.90
17845;DHT22;9047;53.486;10.218;2024-01-07T14:30:10;-0.90;99.90
17845;DHT22;9047;53.486;10.218;2024-01-07T14:32:39;-1.00;99.90
17845;DHT22;9047;53.486;10.218;2024-01-07T14:35:11;-1.10;99.90
17845;DHT22;9047;53.486;10.218;2024-01-07T14:37:42;-1.20;99.90
17845;DHT22;9047;53.486;10.218;2024-01-07T14:40:11;-1.20;99.90
17845;DHT22;9047;53.486;10.218;2024-01-07T14:42:46;-1.30;99.90
17845;DHT22;9047;53.486;10.218;2024-01-07T14:45:13;-1.40;99.90
17845;DHT22;9047;53.486;10.218;2024-01-07T14:47:42;-1.50;99.90
17845;DHT22;9047;53.486;10.218;2024-01-07T14:50:09;-1.50;99.90
17845;DHT22;9047;53.486;10.218;2024-01-07T14:52:36;-1.60;99.90
17845;DHT22;9047;53.486;10.218;2024-01-07T14:55:05;-1.60;99.90
17845;DHT22;9047;53.486;10.218;2024-01-07T14:57:31;-1.70;99.90
17845;DHT22;9047;53.486;10.218;2024-01-07T14:59:59;-1.70;99.90
17845;DHT22;9047;53.486;10.218;2024-01-07T15:02:27;-1.80;99.90
17845;DHT22;9047;53.486;10.218;2024-01-07T15:04:53;-1.80;99.90
17845;DHT22;9047;53.486;10.218;2024-01-07T15:07:21;-1.80;99.90
17845;DHT22;9047;53.486;10.218;2024-01-07T15:09:51;-2.00;99.90
17845;DHT22;9047;53.486;10.218;2024-01-07T15:12:22;-2.00;99.90
17845;DHT22;9047;53.486;10.218;2024-01-07T15:14:50;-2.00;99.90
17845;DHT22;9047;53.486;10.218;2024-01-07T15:17:19;-2.10;99.90
17845;DHT22;9047;53.486;10.218;2024-01-07T15:19:46;-2.10;99.90
17845;DHT22;9047;53.486;10.218;2024-01-07T15:22:14;-2.20;99.90
17845;DHT22;9047;53.486;10.218;2024-01-07T15:24:43;-2.30;99.90
17845;DHT22;9047;53.486;10.218;2024-01-07T15:27:10;-2.30;99.90
17845;DHT22;9047;53.486;10.218;2024-01-07T15:29:45;-2.30;99.90
17845;DHT22;9047;53.486;10.218;2024-01-07T15:32:13;-2.30;99.90
17845;DHT22;9047;53.486;10.218;2024-01-07T15:34:52;-2.40;99.90
17845;DHT22;9047;53.486;10.218;2024-01-07T15:37:25;-2.40;99.90
17845;DHT22;9047;53.486;10.218;2024-01-07T15:39:57;-2.40;99.90
17845;DHT22;9047;53.486;10.218;2024-01-07T15:42:31;-2.40;99.90
17845;DHT22;9047;53.486;10.218;2024-01-07T15:45:03;-2.40;99.90
17845;DHT22;9047;53.486;10.218;2024-01-07T15:47:31;-2.40;99.90
17845;DHT22;9047;53.486;10.218;2024-01-07T15:49:59;-2.40;99.90
17845;DHT22;9047;53.486;10.218;2024-01-07T15:52:26;-2.40;99.90
17845;DHT22;9047;53.486;10.218;2024-01-07T15:54:54;-2.30;99.90
17845;DHT22;9047;53.486;10.218;2024-01-07T15:57:21;-2.30;99.90
17845;DHT22;9047;53.486;10.218;2024-01-07T15:59:49;-2.30;99.90
17845;DHT22;9047;53.486;10.218;2024-01-07T16:02:25;-2.30;99.90
17845;DHT22;9047;53.486;10.218;2024-01-07T16:04:53;-2.20;99.90
17845;DHT22;9047;53.486;10.218;2024-01-07T16:07:23;-2.20;99.90
17845;DHT22;9047;53.486;10.218;2024-01-07T16:09:51;-2.30;99.90
17845;DHT22;9047;53.486;10.218;2024-01-07T16:12:17;-2.20;99.90